sensor_id;sensor_type;location;lat;lon;timestamp;pressure;altitude;pressure_sealevel;temperature;humidity
1926;BME280;964;42.606;23.588;2023-03-25T00:00:20;94230.16;;;30.57;21.99
1926;BME280;964;42.606;23.588;2023-03-25T00:02:51;94221.94;;;30.26;22.26
1926;BME280;964;42.606;23.588;2023-03-25T00:05:20;94232.13;;;30.26;22.45
1926;BME280;964;42.606;23.588;2023-03-25T00:07:50;94225.22;;;30.61;22.27
1926;BME280;964;42.606;23.588;2023-03-25T00:10:18;94225.13;;;30.82;22.09
1926;BME280;964;42.606;23.588;2023-03-25T00:12:45;94230.38;;;30.54;22.26
1926;BME280;964;42.606;23.588;2023-03-25T00:15:11;94229.72;;;30.64;21.99
1926;BME280;964;42.606;23.588;2023-03-25T00:17:40;94219.00;;;30.61;22.24
1926;BME280;964;42.606;23.588;2023-03-25T00:20:09;94223.56;;;29.66;22.81
1926;BME280;964;42.606;23.588;2023-03-25T00:22:37;94228.13;;;29.14;23.44
1926;BME280;964;42.606;23.588;2023-03-25T00:25:11;94220.31;;;29.42;23.55
1926;BME280;964;42.606;23.588;2023-03-25T00:27:40;94222.28;;;29.42;23.53
1926;BME280;964;42.606;23.588;2023-03-25T00:30:09;94233.41;;;29.38;23.71
1926;BME280;964;42.606;23.588;2023-03-25T00:32:36;94235.91;;;28.22;25.05
1926;BME280;964;42.606;23.588;2023-03-25T00:35:04;94236.22;;;27.71;25.38
1926;BME280;964;42.606;23.588;2023-03-25T00:37:32;94228.13;;;27.77;25.46
1926;BME280;964;42.606;23.588;2023-03-25T00:39:59;94219.88;;;27.86;25.42
1926;BME280;964;42.606;23.588;2023-03-25T00:42:27;94218.84;;;27.21;26.02
1926;BME280;964;42.606;23.588;2023-03-25T00:44:54;94217.09;;;27.33;25.77
1926;BME280;964;42.606;23.588;2023-03-25T00:47:21;94216.41;;;27.00;26.29
1926;BME280;964;42.606;23.588;2023-03-25T00:49:48;94216.94;;;27.37;25.92
1926;BME280;964;42.606;23.588;2023-03-25T00:52:16;94208.34;;;28.35;24.97
1926;BME280;964;42.606;23.588;2023-03-25T00:54:42;94202.44;;;28.37;24.89
1926;BME280;964;42.606;23.588;2023-03-25T00:57:10;94205.44;;;28.24;24.70
1926;BME280;964;42.606;23.588;2023-03-25T00:59:38;94208.84;;;27.51;25.95
1926;BME280;964;42.606;23.588;2023-03-25T01:02:05;94208.84;;;27.27;25.83
1926;BME280;964;42.606;23.588;2023-03-25T01:04:32;94203.16;;;27.78;25.45
1926;BME280;964;42.606;23.588;2023-03-25T01:06:59;94199.06;;;27.98;25.29
1926;BME280;964;42.606;23.588;2023-03-25T01:09:25;94193.75;;;27.65;25.60
1926;BME280;964;42.606;23.588;2023-03-25T01:11:52;94202.03;;;26.43;27.17
1926;BME280;964;42.606;23.588;2023-03-25T01:14:20;94191.78;;;27.27;26.45
1926;BME280;964;42.606;23.588;2023-03-25T01:16:49;94186.72;;;27.73;25.54
1926;BME280;964;42.606;23.588;2023-03-25T01:19:16;94198.47;;;27.94;25.12
1926;BME280;964;42.606;23.588;2023-03-25T01:21:43;94190.00;;;28.06;25.03
1926;BME280;964;42.606;23.588;2023-03-25T01:24:12;94184.38;;;26.71;26.94
1926;BME280;964;42.606;23.588;2023-03-25T01:26:39;94182.50;;;26.11;27.78
1926;BME280;964;42.606;23.588;2023-03-25T01:29:08;94174.19;;;26.90;26.92
1926;BME280;964;42.606;23.588;2023-03-25T01:31:34;94168.41;;;27.73;25.46
1926;BME280;964;42.606;23.588;2023-03-25T01:34:03;94176.31;;;27.86;25.38
1926;BME280;964;42.606;23.588;2023-03-25T01:36:30;94174.88;;;27.76;25.42
1926;BME280;964;42.606;23.588;2023-03-25T01:38:58;94176.84;;;26.99;26.24
1926;BME280;964;42.606;23.588;2023-03-25T01:41:26;94176.03;;;27.31;26.14
1926;BME280;964;42.606;23.588;2023-03-25T01:44:00;94164.50;;;26.65;26.84
1926;BME280;964;42.606;23.588;2023-03-25T01:46:27;94164.50;;;26.32;27.05
1926;BME280;964;42.606;23.588;2023-03-25T01:48:54;94164.50;;;26.65;26.89
1926;BME280;964;42.606;23.588;2023-03-25T01:51:27;94152.56;;;27.34;25.98
1926;BME280;964;42.606;23.588;2023-03-25T01:53:55;94148.13;;;28.04;25.27
1926;BME280;964;42.606;23.588;2023-03-25T01:56:26;94143.84;;;28.12;25.13
1926;BME280;964;42.606;23.588;2023-03-25T01:58:55;94149.16;;;27.24;26.02
1926;BME280;964;42.606;23.588;2023-03-25T02:01:23;94151.31;;;27.58;25.95
1926;BME280;964;42.606;23.588;2023-03-25T02:03:52;94149.84;;;27.87;25.35
1926;BME280;964;42.606;23.588;2023-03-25T02:06:32;94152.81;;;27.74;25.28
1926;BME280;964;42.606;23.588;2023-03-25T02:09:04;94146.50;;;28.41;24.95
1926;BME280;964;42.606;23.588;2023-03-25T02:11:36;94143.06;;;27.53;25.57
1926;BME280;964;42.606;23.588;2023-03-25T02:14:06;94148.22;;;28.09;25.48
1926;BME280;964;42.606;23.588;2023-03-25T02:16:41;94149.06;;;28.30;24.92
1926;BME280;964;42.606;23.588;2023-03-25T02:19:42;94138.44;;;28.67;24.77
1926;BME280;964;42.606;23.588;2023-03-25T02:28:18;94145.03;;;28.60;24.57
1926;BME280;964;42.606;23.588;2023-03-25T02:31:01;94139.41;;;27.70;25.45
1926;BME280;964;42.606;23.588;2023-03-25T02:34:09;94137.13;;;26.68;26.42
1926;BME280;964;42.606;23.588;2023-03-25T02:37:00;94134.22;;;28.02;25.42
1926;BME280;964;42.606;23.588;2023-03-25T02:39:38;94127.66;;;28.23;24.74
1926;BME280;964;42.606;23.588;2023-03-25T02:42:12;94124.66;;;27.92;25.24
1926;BME280;964;42.606;23.588;2023-03-25T02:44:46;94131.69;;;28.62;24.85
1926;BME280;964;42.606;23.588;2023-03-25T02:47:18;94134.31;;;28.57;24.38
1926;BME280;964;42.606;23.588;2023-03-25T02:49:47;94131.97;;;28.00;25.08
1926;BME280;964;42.606;23.588;2023-03-25T02:52:19;94137.50;;;28.06;25.02
1926;BME280;964;42.606;23.588;2023-03-25T02:54:51;94138.56;;;28.23;24.82
1926;BME280;964;42.606;23.588;2023-03-25T02:57:24;94133.03;;;28.52;24.39
1926;BME280;964;42.606;23.588;2023-03-25T02:59:53;94135.75;;;28.52;24.18
1926;BME280;964;42.606;23.588;2023-03-25T03:02:23;94131.88;;;28.24;24.30
1926;BME280;964;42.606;23.588;2023-03-25T03:04:53;94109.63;;;27.52;25.33
1926;BME280;964;42.606;23.588;2023-03-25T03:07:23;94117.34;;;27.98;25.07
1926;BME280;964;42.606;23.588;2023-03-25T03:09:57;94104.19;;;28.46;24.32
1926;BME280;964;42.606;23.588;2023-03-25T03:12:36;94110.00;;;28.04;24.47
1926;BME280;964;42.606;23.588;2023-03-25T03:15:26;94107.56;;;27.47;25.31
1926;BME280;964;42.606;23.588;2023-03-25T03:18:06;94117.50;;;28.09;24.82
1926;BME280;964;42.606;23.588;2023-03-25T03:20:42;94120.06;;;27.68;24.88
1926;BME280;964;42.606;23.588;2023-03-25T03:23:12;94124.00;;;27.67;25.24
1926;BME280;964;42.606;23.588;2023-03-25T03:25:49;94124.94;;;27.64;25.35
1926;BME280;964;42.606;23.588;2023-03-25T03:28:22;94122.53;;;27.28;25.48
1926;BME280;964;42.606;23.588;2023-03-25T03:30:53;94127.03;;;26.93;25.92
1926;BME280;964;42.606;23.588;2023-03-25T03:33:26;94118.06;;;27.84;24.95
1926;BME280;964;42.606;23.588;2023-03-25T03:35:58;94123.25;;;27.52;25.04
1926;BME280;964;42.606;23.588;2023-03-25T03:38:28;94124.84;;;27.59;25.21
1926;BME280;964;42.606;23.588;2023-03-25T03:41:03;94125.69;;;28.09;24.57
1926;BME280;964;42.606;23.588;2023-03-25T03:43:38;94125.50;;;27.98;24.71
1926;BME280;964;42.606;23.588;2023-03-25T03:46:10;94127.75;;;27.55;24.95
1926;BME280;964;42.606;23.588;2023-03-25T03:48:41;94135.25;;;28.04;24.60
1926;BME280;964;42.606;23.588;2023-03-25T03:51:14;94147.56;;;27.70;25.32
1926;BME280;964;42.606;23.588;2023-03-25T03:53:46;94130.28;;;28.03;24.47
1926;BME280;964;42.606;23.588;2023-03-25T03:56:18;94130.84;;;28.21;24.47
1926;BME280;964;42.606;23.588;2023-03-25T03:58:49;94125.50;;;27.54;24.87
1926;BME280;964;42.606;23.588;2023-03-25T04:01:20;94125.97;;;27.67;25.02
1926;BME280;964;42.606;23.588;2023-03-25T04:03:57;94124.84;;;27.73;24.74
1926;BME280;964;42.606;23.588;2023-03-25T04:06:28;94130.56;;;27.46;25.23
1926;BME280;964;42.606;23.588;2023-03-25T04:09:02;94131.31;;;27.08;25.55
1926;BME280;964;42.606;23.588;2023-03-25T04:11:38;94136.72;;;27.32;25.37
1926;BME280;964;42.606;23.588;2023-03-25T04:14:06;94133.16;;;27.02;25.45
1926;BME280;964;42.606;23.588;2023-03-25T04:16:34;94135.94;;;26.93;25.74
1926;BME280;964;42.606;23.588;2023-03-25T04:19:02;94137.78;;;27.11;25.36
1926;BME280;964;42.606;23.588;2023-03-25T04:21:29;94140.88;;;26.47;26.11
1926;BME280;964;42.606;23.588;2023-03-25T04:23:56;94148.56;;;26.07;26.72
1926;BME280;964;42.606;23.588;2023-03-25T04:26:26;94145.81;;;26.16;26.63
1926;BME280;964;42.606;23.588;2023-03-25T04:28:55;94144.53;;;26.44;26.46
1926;BME280;964;42.606;23.588;2023-03-25T04:31:24;94155.31;;;26.62;25.91
1926;BME280;964;42.606;23.588;2023-03-25T04:33:55;94153.53;;;26.50;25.73
1926;BME280;964;42.606;23.588;2023-03-25T04:36:22;94149.53;;;26.37;26.06
1926;BME280;964;42.606;23.588;2023-03-25T04:38:49;94152.19;;;26.46;26.02
1926;BME280;964;42.606;23.588;2023-03-25T04:41:17;94154.13;;;26.54;25.89
1926;BME280;964;42.606;23.588;2023-03-25T04:43:44;94161.53;;;25.61;27.44
1926;BME280;964;42.606;23.588;2023-03-25T04:46:13;94167.09;;;25.57;27.48
1926;BME280;964;42.606;23.588;2023-03-25T04:48:41;94164.03;;;25.73;27.56
1926;BME280;964;42.606;23.588;2023-03-25T04:51:10;94156.53;;;26.19;26.46
1926;BME280;964;42.606;23.588;2023-03-25T04:53:37;94154.66;;;25.93;27.44
1926;BME280;964;42.606;23.588;2023-03-25T04:56:05;94153.38;;;26.54;26.70
1926;BME280;964;42.606;23.588;2023-03-25T04:58:37;94150.63;;;26.63;26.39
1926;BME280;964;42.606;23.588;2023-03-25T05:01:05;94151.94;;;27.15;26.03
1926;BME280;964;42.606;23.588;2023-03-25T05:03:36;94146.69;;;27.11;25.94
1926;BME280;964;42.606;23.588;2023-03-25T05:06:05;94148.44;;;27.38;25.93
1926;BME280;964;42.606;23.588;2023-03-25T05:08:32;94150.16;;;28.38;24.68
1926;BME280;964;42.606;23.588;2023-03-25T05:10:58;94153.75;;;28.64;24.45
1926;BME280;964;42.606;23.588;2023-03-25T05:13:25;94150.00;;;28.77;24.44
1926;BME280;964;42.606;23.588;2023-03-25T05:15:52;94152.06;;;28.82;24.30
1926;BME280;964;42.606;23.588;2023-03-25T05:18:18;94143.34;;;28.63;24.70
1926;BME280;964;42.606;23.588;2023-03-25T05:20:47;94146.72;;;29.13;24.47
1926;BME280;964;42.606;23.588;2023-03-25T05:23:15;94148.81;;;29.44;24.08
1926;BME280;964;42.606;23.588;2023-03-25T05:25:42;94143.88;;;29.68;23.94
1926;BME280;964;42.606;23.588;2023-03-25T05:28:09;94147.91;;;29.73;24.10
1926;BME280;964;42.606;23.588;2023-03-25T05:30:38;94139.41;;;30.22;23.66
1926;BME280;964;42.606;23.588;2023-03-25T05:33:06;94137.63;;;30.50;23.07
1926;BME280;964;42.606;23.588;2023-03-25T05:35:34;94143.94;;;30.67;22.70
1926;BME280;964;42.606;23.588;2023-03-25T05:38:03;94138.16;;;30.54;23.23
1926;BME280;964;42.606;23.588;2023-03-25T05:40:30;94135.00;;;31.15;22.75
1926;BME280;964;42.606;23.588;2023-03-25T05:42:57;94132.59;;;31.39;22.64
1926;BME280;964;42.606;23.588;2023-03-25T05:45:24;94130.63;;;31.45;22.61
1926;BME280;964;42.606;23.588;2023-03-25T05:47:50;94123.22;;;31.74;22.26
1926;BME280;964;42.606;23.588;2023-03-25T05:50:18;94127.72;;;31.71;22.04
1926;BME280;964;42.606;23.588;2023-03-25T05:52:46;94120.47;;;31.57;21.77
1926;BME280;964;42.606;23.588;2023-03-25T05:55:17;94126.63;;;31.46;22.08
1926;BME280;964;42.606;23.588;2023-03-25T05:57:44;94126.75;;;32.24;21.89
1926;BME280;964;42.606;23.588;2023-03-25T06:00:13;94127.25;;;32.28;21.37
1926;BME280;964;42.606;23.588;2023-03-25T06:02:41;94126.47;;;32.50;21.86
1926;BME280;964;42.606;23.588;2023-03-25T06:05:09;94131.97;;;32.39;21.83
1926;BME280;964;42.606;23.588;2023-03-25T06:07:38;94133.72;;;32.36;22.13
1926;BME280;964;42.606;23.588;2023-03-25T06:10:07;94136.97;;;32.29;22.41
1926;BME280;964;42.606;23.588;2023-03-25T06:12:36;94128.66;;;32.96;21.60
1926;BME280;964;42.606;23.588;2023-03-25T06:15:16;94127.53;;;33.27;22.02
1926;BME280;964;42.606;23.588;2023-03-25T06:17:45;94143.09;;;33.13;22.14
1926;BME280;964;42.606;23.588;2023-03-25T06:20:13;94135.94;;;33.45;21.80
1926;BME280;964;42.606;23.588;2023-03-25T06:22:42;94140.25;;;33.82;21.22
1926;BME280;964;42.606;23.588;2023-03-25T06:25:10;94137.63;;;32.91;22.18
1926;BME280;964;42.606;23.588;2023-03-25T06:27:38;94132.16;;;33.48;21.22
1926;BME280;964;42.606;23.588;2023-03-25T06:30:07;94124.31;;;33.75;20.85
1926;BME280;964;42.606;23.588;2023-03-25T06:32:34;94127.09;;;34.05;20.77
1926;BME280;964;42.606;23.588;2023-03-25T06:35:01;94128.47;;;34.22;20.43
1926;BME280;964;42.606;23.588;2023-03-25T06:37:28;94131.63;;;34.62;20.04
1926;BME280;964;42.606;23.588;2023-03-25T06:39:55;94124.63;;;34.61;20.32
1926;BME280;964;42.606;23.588;2023-03-25T06:42:24;94120.72;;;34.99;20.02
1926;BME280;964;42.606;23.588;2023-03-25T06:44:52;94130.25;;;34.98;19.92
1926;BME280;964;42.606;23.588;2023-03-25T06:47:20;94121.63;;;35.31;19.99
1926;BME280;964;42.606;23.588;2023-03-25T06:49:47;94133.13;;;35.11;19.13
1926;BME280;964;42.606;23.588;2023-03-25T06:52:14;94133.72;;;35.04;18.81
1926;BME280;964;42.606;23.588;2023-03-25T06:54:40;94132.09;;;35.14;19.23
1926;BME280;964;42.606;23.588;2023-03-25T06:57:07;94131.53;;;35.40;18.72
1926;BME280;964;42.606;23.588;2023-03-25T06:59:34;94133.78;;;35.79;18.54
1926;BME280;964;42.606;23.588;2023-03-25T07:02:02;94132.66;;;35.87;18.43
1926;BME280;964;42.606;23.588;2023-03-25T07:04:29;94143.47;;;35.85;18.08
1926;BME280;964;42.606;23.588;2023-03-25T07:06:55;94136.16;;;35.88;18.30
1926;BME280;964;42.606;23.588;2023-03-25T07:09:22;94129.25;;;36.32;18.04
1926;BME280;964;42.606;23.588;2023-03-25T07:11:49;94123.03;;;36.84;18.40
1926;BME280;964;42.606;23.588;2023-03-25T07:14:15;94113.25;;;37.36;18.02
1926;BME280;964;42.606;23.588;2023-03-25T07:16:42;94117.81;;;37.59;17.86
1926;BME280;964;42.606;23.588;2023-03-25T07:19:11;94117.50;;;37.50;17.64
1926;BME280;964;42.606;23.588;2023-03-25T07:21:37;94125.06;;;37.96;16.93
1926;BME280;964;42.606;23.588;2023-03-25T07:24:05;94120.06;;;37.95;16.97
1926;BME280;964;42.606;23.588;2023-03-25T07:26:31;94125.69;;;38.44;16.69
1926;BME280;964;42.606;23.588;2023-03-25T07:28:58;94119.16;;;38.62;16.79
1926;BME280;964;42.606;23.588;2023-03-25T07:31:25;94123.25;;;38.19;16.73
1926;BME280;964;42.606;23.588;2023-03-25T07:33:51;94114.75;;;39.15;16.66
1926;BME280;964;42.606;23.588;2023-03-25T07:36:20;94109.22;;;39.59;16.09
1926;BME280;964;42.606;23.588;2023-03-25T07:38:48;94110.34;;;39.20;16.51
1926;BME280;964;42.606;23.588;2023-03-25T07:41:15;94110.00;;;38.95;16.15
1926;BME280;964;42.606;23.588;2023-03-25T07:43:41;94114.84;;;39.74;15.78
1926;BME280;964;42.606;23.588;2023-03-25T07:46:10;94101.22;;;40.06;15.86
1926;BME280;964;42.606;23.588;2023-03-25T07:48:37;94106.03;;;41.04;15.75
1926;BME280;964;42.606;23.588;2023-03-25T07:51:04;94105.66;;;40.93;15.90
1926;BME280;964;42.606;23.588;2023-03-25T07:53:32;94104.94;;;40.92;15.67
1926;BME280;964;42.606;23.588;2023-03-25T07:55:58;94103.66;;;40.63;15.77
1926;BME280;964;42.606;23.588;2023-03-25T07:58:25;94092.78;;;41.83;14.69
1926;BME280;964;42.606;23.588;2023-03-25T08:00:52;94084.50;;;42.74;14.60
1926;BME280;964;42.606;23.588;2023-03-25T08:03:21;94080.63;;;42.28;15.11
1926;BME280;964;42.606;23.588;2023-03-25T08:05:48;94077.41;;;42.81;15.72
1926;BME280;964;42.606;23.588;2023-03-25T08:08:15;94078.16;;;43.50;14.99
1926;BME280;964;42.606;23.588;2023-03-25T08:10:43;94077.59;;;42.58;14.54
1926;BME280;964;42.606;23.588;2023-03-25T08:13:12;94076.84;;;42.58;15.05
1926;BME280;964;42.606;23.588;2023-03-25T08:15:39;94071.41;;;42.84;15.12
1926;BME280;964;42.606;23.588;2023-03-25T08:18:06;94063.13;;;42.77;15.42
1926;BME280;964;42.606;23.588;2023-03-25T08:20:33;94071.00;;;42.46;16.04
1926;BME280;964;42.606;23.588;2023-03-25T08:23:00;94067.97;;;42.93;15.28
1926;BME280;964;42.606;23.588;2023-03-25T08:25:27;94063.59;;;43.52;14.91
1926;BME280;964;42.606;23.588;2023-03-25T08:27:55;94053.94;;;43.18;15.08
1926;BME280;964;42.606;23.588;2023-03-25T08:30:22;94052.19;;;43.40;14.97
1926;BME280;964;42.606;23.588;2023-03-25T08:32:49;94049.91;;;43.46;15.06
1926;BME280;964;42.606;23.588;2023-03-25T08:35:18;94041.16;;;44.13;14.62
1926;BME280;964;42.606;23.588;2023-03-25T08:37:46;94047.47;;;44.13;14.33
1926;BME280;964;42.606;23.588;2023-03-25T08:40:13;94040.75;;;44.81;14.32
1926;BME280;964;42.606;23.588;2023-03-25T08:42:41;94041.13;;;44.49;14.28
1926;BME280;964;42.606;23.588;2023-03-25T08:45:11;94039.97;;;44.52;14.33
1926;BME280;964;42.606;23.588;2023-03-25T08:47:39;94039.06;;;44.04;14.28
1926;BME280;964;42.606;23.588;2023-03-25T08:50:07;94039.50;;;44.00;14.44
1926;BME280;964;42.606;23.588;2023-03-25T08:52:34;94040.00;;;44.16;14.30
1926;BME280;964;42.606;23.588;2023-03-25T08:55:01;94030.41;;;44.09;14.62
1926;BME280;964;42.606;23.588;2023-03-25T08:57:28;94034.03;;;43.92;14.02
1926;BME280;964;42.606;23.588;2023-03-25T08:59:54;94021.19;;;44.81;13.86
1926;BME280;964;42.606;23.588;2023-03-25T09:02:22;94015.31;;;45.16;13.64
1926;BME280;964;42.606;23.588;2023-03-25T09:04:49;94016.47;;;44.94;14.07
1926;BME280;964;42.606;23.588;2023-03-25T09:07:16;94008.00;;;45.80;13.38
1926;BME280;964;42.606;23.588;2023-03-25T09:09:44;94003.72;;;46.19;12.82
1926;BME280;964;42.606;23.588;2023-03-25T09:12:11;94002.19;;;46.28;12.85
1926;BME280;964;42.606;23.588;2023-03-25T09:14:38;94006.97;;;45.66;13.68
1926;BME280;964;42.606;23.588;2023-03-25T09:17:04;94003.94;;;45.52;14.04
1926;BME280;964;42.606;23.588;2023-03-25T09:19:33;94016.16;;;43.78;14.35
1926;BME280;964;42.606;23.588;2023-03-25T09:22:02;93996.47;;;44.87;13.99
1926;BME280;964;42.606;23.588;2023-03-25T09:24:29;94002.94;;;45.28;13.86
1926;BME280;964;42.606;23.588;2023-03-25T09:27:00;93992.38;;;46.17;12.88
1926;BME280;964;42.606;23.588;2023-03-25T09:29:27;93993.81;;;46.49;13.29
1926;BME280;964;42.606;23.588;2023-03-25T09:31:54;93989.56;;;46.69;13.56
1926;BME280;964;42.606;23.588;2023-03-25T09:34:22;93987.03;;;46.52;13.22
1926;BME280;964;42.606;23.588;2023-03-25T09:36:50;93985.09;;;45.43;13.39
1926;BME280;964;42.606;23.588;2023-03-25T09:39:17;93980.94;;;44.29;14.18
1926;BME280;964;42.606;23.588;2023-03-25T09:42:10;93982.16;;;45.41;14.03
1926;BME280;964;42.606;23.588;2023-03-25T09:44:53;93968.06;;;47.16;13.45
1926;BME280;964;42.606;23.588;2023-03-25T09:47:23;93970.84;;;44.07;14.43
1926;BME280;964;42.606;23.588;2023-03-25T09:49:55;93980.53;;;42.64;15.20
1926;BME280;964;42.606;23.588;2023-03-25T09:52:27;93973.31;;;43.66;14.77
1926;BME280;964;42.606;23.588;2023-03-25T09:54:58;93975.00;;;43.79;14.57
1926;BME280;964;42.606;23.588;2023-03-25T09:57:29;93956.28;;;44.73;13.71
1926;BME280;964;42.606;23.588;2023-03-25T09:59:59;93951.84;;;45.09;14.00
1926;BME280;964;42.606;23.588;2023-03-25T10:02:35;93951.44;;;45.62;13.04
1926;BME280;964;42.606;23.588;2023-03-25T10:05:19;93958.84;;;45.48;13.87
1926;BME280;964;42.606;23.588;2023-03-25T10:08:02;93945.63;;;45.39;13.71
1926;BME280;964;42.606;23.588;2023-03-25T10:10:36;93947.81;;;45.41;13.89
1926;BME280;964;42.606;23.588;2023-03-25T10:13:12;93939.03;;;45.65;13.43
1926;BME280;964;42.606;23.588;2023-03-25T10:15:51;93935.13;;;45.90;13.37
1926;BME280;964;42.606;23.588;2023-03-25T10:18:39;93930.00;;;45.86;13.82
1926;BME280;964;42.606;23.588;2023-03-25T10:21:14;93922.50;;;45.79;13.65
1926;BME280;964;42.606;23.588;2023-03-25T10:23:49;93921.31;;;45.82;13.71
1926;BME280;964;42.606;23.588;2023-03-25T10:26:21;93910.31;;;45.96;13.99
1926;BME280;964;42.606;23.588;2023-03-25T10:28:53;93907.66;;;45.98;13.33
1926;BME280;964;42.606;23.588;2023-03-25T10:31:25;93916.75;;;44.12;13.99
1926;BME280;964;42.606;23.588;2023-03-25T10:33:57;93910.06;;;44.34;13.75
1926;BME280;964;42.606;23.588;2023-03-25T10:36:31;93919.41;;;43.37;14.82
1926;BME280;964;42.606;23.588;2023-03-25T10:39:00;93921.25;;;42.46;14.82
1926;BME280;964;42.606;23.588;2023-03-25T10:41:32;93912.06;;;42.88;15.31
1926;BME280;964;42.606;23.588;2023-03-25T10:44:06;93899.09;;;43.27;15.21
1926;BME280;964;42.606;23.588;2023-03-25T10:46:36;93902.13;;;43.21;14.91
1926;BME280;964;42.606;23.588;2023-03-25T10:49:13;93902.16;;;43.58;14.57
1926;BME280;964;42.606;23.588;2023-03-25T10:51:42;93895.31;;;44.24;14.41
1926;BME280;964;42.606;23.588;2023-03-25T10:54:11;93879.72;;;44.78;14.07
1926;BME280;964;42.606;23.588;2023-03-25T10:56:42;93875.91;;;43.34;14.55
1926;BME280;964;42.606;23.588;2023-03-25T10:59:16;93874.78;;;43.10;14.27
1926;BME280;964;42.606;23.588;2023-03-25T11:01:45;93889.63;;;42.51;14.66
1926;BME280;964;42.606;23.588;2023-03-25T11:04:16;93876.75;;;43.00;13.70
1926;BME280;964;42.606;23.588;2023-03-25T11:06:50;93868.22;;;43.98;13.50
1926;BME280;964;42.606;23.588;2023-03-25T11:09:23;93867.66;;;44.18;13.27
1926;BME280;964;42.606;23.588;2023-03-25T11:11:51;93859.59;;;44.22;13.14
1926;BME280;964;42.606;23.588;2023-03-25T11:14:21;93869.84;;;41.88;14.15
1926;BME280;964;42.606;23.588;2023-03-25T11:16:53;93879.34;;;42.02;14.62
1926;BME280;964;42.606;23.588;2023-03-25T11:19:24;93878.16;;;41.71;14.68
1926;BME280;964;42.606;23.588;2023-03-25T11:21:53;93878.88;;;42.14;14.76
1926;BME280;964;42.606;23.588;2023-03-25T11:24:25;93861.28;;;42.89;14.34
1926;BME280;964;42.606;23.588;2023-03-25T11:26:53;93859.97;;;42.90;14.22
1926;BME280;964;42.606;23.588;2023-03-25T11:29:23;93852.06;;;42.96;14.49
1926;BME280;964;42.606;23.588;2023-03-25T11:31:56;93848.78;;;43.08;14.51
1926;BME280;964;42.606;23.588;2023-03-25T11:34:23;93853.63;;;42.46;14.05
1926;BME280;964;42.606;23.588;2023-03-25T11:36:53;93843.63;;;42.77;14.40
1926;BME280;964;42.606;23.588;2023-03-25T11:39:32;93833.72;;;43.20;13.27
1926;BME280;964;42.606;23.588;2023-03-25T11:42:12;93831.25;;;43.61;13.71
1926;BME280;964;42.606;23.588;2023-03-25T11:44:40;93832.56;;;42.96;14.10
1926;BME280;964;42.606;23.588;2023-03-25T11:47:08;93828.63;;;43.36;14.17
1926;BME280;964;42.606;23.588;2023-03-25T11:49:38;93811.97;;;45.09;13.12
1926;BME280;964;42.606;23.588;2023-03-25T11:52:07;93813.94;;;44.77;13.18
1926;BME280;964;42.606;23.588;2023-03-25T11:54:36;93803.44;;;45.68;13.55
1926;BME280;964;42.606;23.588;2023-03-25T11:57:05;93807.78;;;44.50;13.67
1926;BME280;964;42.606;23.588;2023-03-25T11:59:38;93816.56;;;42.97;14.61
1926;BME280;964;42.606;23.588;2023-03-25T12:02:19;93808.28;;;43.53;13.83
1926;BME280;964;42.606;23.588;2023-03-25T12:04:58;93805.31;;;44.16;13.51
1926;BME280;964;42.606;23.588;2023-03-25T12:07:26;93805.00;;;44.12;13.92
1926;BME280;964;42.606;23.588;2023-03-25T12:09:55;93794.41;;;43.81;13.85
1926;BME280;964;42.606;23.588;2023-03-25T12:12:32;93790.84;;;43.71;13.73
1926;BME280;964;42.606;23.588;2023-03-25T12:15:20;93789.38;;;43.70;13.71
1926;BME280;964;42.606;23.588;2023-03-25T12:17:58;93778.25;;;43.24;13.90
1926;BME280;964;42.606;23.588;2023-03-25T12:20:34;93784.63;;;43.44;14.51
1926;BME280;964;42.606;23.588;2023-03-25T12:23:05;93773.66;;;43.75;14.42
1926;BME280;964;42.606;23.588;2023-03-25T12:25:46;93767.97;;;45.61;13.17
1926;BME280;964;42.606;23.588;2023-03-25T12:28:31;93768.75;;;45.52;13.20
1926;BME280;964;42.606;23.588;2023-03-25T12:31:07;93767.81;;;44.98;13.53
1926;BME280;964;42.606;23.588;2023-03-25T12:33:48;93758.91;;;45.94;13.46
1926;BME280;964;42.606;23.588;2023-03-25T12:36:31;93764.69;;;44.63;13.80
1926;BME280;964;42.606;23.588;2023-03-25T12:39:16;93763.84;;;44.41;13.61
1926;BME280;964;42.606;23.588;2023-03-25T12:41:56;93763.09;;;44.31;13.66
1926;BME280;964;42.606;23.588;2023-03-25T12:44:44;93763.84;;;43.93;13.55
1926;BME280;964;42.606;23.588;2023-03-25T12:47:22;93774.94;;;43.09;14.27
1926;BME280;964;42.606;23.588;2023-03-25T12:50:08;93774.00;;;42.08;15.30
1926;BME280;964;42.606;23.588;2023-03-25T12:52:42;93769.09;;;41.65;15.61
1926;BME280;964;42.606;23.588;2023-03-25T12:55:32;93767.78;;;42.18;15.19
1926;BME280;964;42.606;23.588;2023-03-25T12:58:19;93772.50;;;40.57;15.97
1926;BME280;964;42.606;23.588;2023-03-25T13:00:55;93771.09;;;41.05;15.81
1926;BME280;964;42.606;23.588;2023-03-25T13:06:31;93772.28;;;40.23;16.55
1926;BME280;964;42.606;23.588;2023-03-25T13:09:02;93766.56;;;40.60;16.83
1926;BME280;964;42.606;23.588;2023-03-25T13:11:36;93772.28;;;40.23;16.18
1926;BME280;964;42.606;23.588;2023-03-25T13:14:07;93783.56;;;39.47;16.26
1926;BME280;964;42.606;23.588;2023-03-25T13:16:38;93775.78;;;38.92;16.45
1926;BME280;964;42.606;23.588;2023-03-25T13:19:09;93775.78;;;38.85;17.07
1926;BME280;964;42.606;23.588;2023-03-25T13:21:40;93771.00;;;39.00;16.39
1926;BME280;964;42.606;23.588;2023-03-25T13:24:11;93767.06;;;39.64;16.63
1926;BME280;964;42.606;23.588;2023-03-25T13:26:43;93771.66;;;38.63;16.89
1926;BME280;964;42.606;23.588;2023-03-25T13:29:19;93774.50;;;38.27;16.57
1926;BME280;964;42.606;23.588;2023-03-25T13:31:49;93783.22;;;37.95;17.24
1926;BME280;964;42.606;23.588;2023-03-25T13:34:19;93775.94;;;37.28;17.41
1926;BME280;964;42.606;23.588;2023-03-25T13:36:58;93777.25;;;37.27;17.34
1926;BME280;964;42.606;23.588;2023-03-25T13:39:45;93774.59;;;36.80;17.91
1926;BME280;964;42.606;23.588;2023-03-25T13:42:19;93779.53;;;37.64;17.74
1926;BME280;964;42.606;23.588;2023-03-25T13:44:50;93786.41;;;37.01;17.95
1926;BME280;964;42.606;23.588;2023-03-25T13:47:22;93779.50;;;37.08;17.28
1926;BME280;964;42.606;23.588;2023-03-25T13:49:53;93786.22;;;36.45;17.64